createdAt,value
2016-11-17T10:12:40.102Z,18.97
2016-11-17T10:13:05.507Z,18.98
2016-11-17T10:13:31.066Z,18.92
2016-11-17T10:13:56.712Z,18.95
2016-11-17T10:14:22.359Z,18.97
2016-11-17T10:14:48.498Z,18.94
2016-11-17T10:15:13.736Z,18.92
2016-11-17T10:15:39.406Z,18.95
2016-11-17T10:16:04.951Z,18.94
2016-11-17T10:16:30.506Z,18.94
2016-11-17T10:16:56.122Z,18.9
2016-11-17T10:18:05.235Z,18.92
2016-11-17T10:20:12.294Z,18.83
2016-11-17T10:20:37.872Z,18.8
2016-11-17T10:21:03.402Z,18.83
2016-11-17T10:21:29.093Z,18.82
2016-11-17T10:21:54.794Z,18.87
2016-11-17T10:22:20.335Z,18.82
2016-11-17T10:22:45.904Z,18.86
2016-11-17T10:23:11.480Z,18.83
2016-11-17T10:23:37.084Z,18.87
2016-11-17T10:24:02.660Z,18.87
2016-11-17T10:24:28.265Z,18.79
2016-11-17T10:24:53.927Z,18.87
2016-11-17T10:25:19.463Z,18.9
2016-11-17T10:25:45.021Z,18.82
2016-11-17T10:26:10.668Z,18.83
2016-11-17T10:26:36.237Z,18.91
2016-11-17T10:27:01.811Z,18.87
2016-11-17T10:27:27.355Z,18.92
2016-11-17T10:27:53.018Z,18.94
2016-11-17T10:28:18.585Z,18.94
2016-11-17T10:28:44.238Z,18.94
2016-11-17T10:29:09.914Z,18.97
2016-11-17T10:29:35.444Z,18.94
2016-11-17T10:30:01.008Z,18.95
2016-11-17T10:30:26.826Z,18.92
2016-11-17T10:30:52.492Z,18.92
2016-11-17T10:31:18.146Z,18.99
2016-11-17T10:31:43.700Z,18.99
2016-11-17T10:32:09.286Z,18.95
2016-11-17T10:32:34.858Z,18.98
2016-11-17T10:33:00.415Z,18.95
2016-11-17T10:33:26.130Z,18.94
2016-11-17T10:33:51.718Z,18.99
2016-11-17T10:34:17.247Z,19.01
2016-11-17T10:34:42.821Z,19.01
2016-11-17T10:35:08.536Z,18.95
2016-11-17T10:35:34.106Z,18.9
2016-11-17T10:35:59.784Z,18.98
2016-11-17T10:36:25.369Z,18.98
2016-11-17T10:36:50.935Z,18.87
2016-11-17T10:37:16.506Z,18.92
2016-11-17T10:37:42.214Z,18.99
2016-11-17T10:38:07.799Z,18.92
2016-11-17T10:38:33.359Z,19.02
2016-11-17T10:38:58.929Z,19.05
2016-11-17T10:39:24.536Z,18.97
2016-11-17T10:39:50.319Z,18.94
2016-11-17T10:40:15.933Z,18.99
2016-11-17T10:40:41.508Z,18.98
2016-11-17T10:41:07.107Z,19.01
2016-11-17T10:41:32.650Z,19.02
2016-11-17T10:41:58.289Z,18.94
2016-11-17T10:42:23.847Z,18.95
2016-11-17T10:42:49.419Z,18.97
2016-11-17T10:43:14.949Z,18.98
2016-11-17T10:43:40.556Z,18.94
2016-11-17T10:44:06.137Z,19.02
2016-11-17T10:44:31.704Z,18.9
2016-11-17T10:44:57.367Z,18.9
2016-11-17T10:46:05.926Z,18.87
2016-11-17T10:46:31.509Z,18.87
2016-11-17T10:46:57.126Z,18.91
2016-11-17T10:47:22.686Z,18.91
2016-11-17T10:47:48.285Z,18.94
2016-11-17T10:48:13.869Z,18.87
2016-11-17T10:48:39.448Z,18.86
2016-11-17T10:49:05.059Z,18.83
2016-11-17T10:49:30.617Z,18.84
2016-11-17T10:49:56.191Z,18.82
2016-11-17T10:50:21.877Z,18.86
2016-11-17T10:50:47.541Z,18.84
2016-11-17T10:51:13.137Z,18.86
2016-11-17T10:51:38.692Z,18.86
2016-11-17T10:52:04.260Z,18.83
2016-11-17T10:52:29.816Z,18.76
2016-11-17T10:52:55.385Z,18.8
2016-11-17T10:53:21.027Z,18.86
2016-11-17T10:53:46.708Z,18.76
2016-11-17T10:54:12.363Z,18.76
2016-11-17T10:54:37.942Z,18.82
2016-11-17T10:55:03.503Z,18.76
2016-11-17T10:55:29.057Z,18.73
2016-11-17T10:55:54.622Z,18.77
2016-11-17T10:56:20.276Z,18.82
2016-11-17T10:56:45.908Z,18.79
2016-11-17T10:57:11.480Z,18.74
2016-11-17T10:57:37.122Z,18.74
2016-11-17T10:58:02.749Z,18.77
2016-11-17T10:58:28.323Z,18.68
2016-11-17T10:58:53.883Z,18.7
2016-11-17T10:59:19.448Z,18.7
2016-11-17T10:59:45.021Z,18.72
2016-11-17T11:00:10.573Z,18.72
2016-11-17T11:00:36.203Z,18.7
2016-11-17T11:01:01.751Z,18.7
2016-11-17T11:01:27.315Z,18.68
2016-11-17T11:01:52.868Z,18.72
2016-11-17T11:02:18.439Z,18.67
2016-11-17T11:02:44.205Z,18.65
2016-11-17T11:03:09.775Z,18.61
2016-11-17T11:03:35.450Z,18.7
2016-11-17T11:04:01.018Z,18.59
2016-11-17T11:04:26.624Z,18.58
2016-11-17T11:04:53.046Z,18.58
2016-11-17T11:05:18.634Z,18.68
2016-11-17T11:05:44.189Z,18.59
2016-11-17T11:06:09.769Z,18.65
2016-11-17T11:06:35.334Z,18.58
2016-11-17T11:07:00.887Z,18.57
2016-11-17T11:07:26.447Z,18.61
2016-11-17T11:07:52.001Z,18.64
2016-11-17T11:08:17.581Z,18.59
2016-11-17T11:08:43.189Z,18.62
2016-11-17T11:09:08.878Z,18.55
2016-11-17T11:09:34.452Z,18.54
2016-11-17T11:10:00.066Z,18.54
2016-11-17T11:10:25.686Z,18.62
2016-11-17T11:10:51.248Z,18.61
2016-11-17T11:11:16.808Z,18.61
2016-11-17T11:11:42.543Z,18.54
2016-11-17T11:12:08.104Z,18.54
2016-11-17T11:12:33.738Z,18.57
2016-11-17T11:12:59.306Z,18.57
2016-11-17T11:13:24.852Z,18.52
2016-11-17T11:13:50.425Z,18.5
2016-11-17T11:14:16.196Z,18.54
2016-11-17T11:14:41.748Z,18.55
2016-11-17T11:15:07.345Z,18.57
2016-11-17T11:15:32.887Z,18.52
2016-11-17T11:15:58.518Z,18.55
2016-11-17T11:16:24.097Z,18.55
2016-11-17T11:16:49.740Z,18.55
2016-11-17T11:17:15.304Z,18.55
2016-11-17T11:17:40.899Z,18.58
2016-11-17T11:18:06.475Z,18.54
2016-11-17T11:18:32.043Z,18.54
2016-11-17T11:18:57.687Z,18.5
2016-11-17T11:19:23.264Z,18.55
2016-11-17T11:19:48.848Z,18.54
2016-11-17T11:20:14.416Z,18.49
2016-11-17T11:20:40.042Z,18.5
2016-11-17T11:21:05.694Z,18.55
2016-11-17T11:21:31.309Z,18.43
2016-11-17T11:21:56.938Z,18.46
2016-11-17T11:22:22.511Z,18.47
2016-11-17T11:22:48.049Z,18.5
2016-11-17T11:23:13.741Z,18.49
2016-11-17T11:23:39.325Z,18.5
2016-11-17T11:24:04.981Z,18.47
2016-11-17T11:24:30.563Z,18.44
2016-11-17T11:24:56.149Z,18.49
2016-11-17T11:25:21.692Z,18.46
2016-11-17T11:25:47.354Z,18.61
2016-11-17T11:26:13.010Z,18.55
2016-11-17T11:26:38.586Z,18.54
2016-11-17T11:27:04.168Z,18.52
2016-11-17T11:27:29.800Z,18.55
2016-11-17T11:27:55.373Z,18.54
2016-11-17T11:28:20.975Z,18.59
2016-11-17T11:28:46.557Z,18.52
2016-11-17T11:29:12.132Z,18.58
2016-11-17T11:29:37.682Z,18.59
2016-11-17T11:30:03.234Z,18.61
2016-11-17T11:30:28.918Z,18.58
2016-11-17T11:30:54.476Z,18.59
2016-11-17T11:31:20.050Z,18.58
2016-11-17T11:31:45.687Z,18.68
2016-11-17T11:32:11.272Z,18.54
2016-11-17T11:32:36.898Z,18.65
2016-11-17T11:33:02.576Z,18.58
2016-11-17T11:33:28.169Z,18.65
2016-11-17T11:33:53.771Z,18.64
2016-11-17T11:34:19.364Z,18.62
2016-11-17T11:34:44.948Z,18.55
2016-11-17T11:35:10.481Z,18.58
2016-11-17T11:35:36.178Z,18.61
2016-11-17T11:36:01.812Z,18.59
2016-11-17T11:36:27.351Z,18.65
2016-11-17T11:36:52.940Z,18.61
2016-11-17T11:37:18.601Z,18.62
2016-11-17T11:37:44.356Z,18.62
2016-11-17T11:38:09.977Z,18.58
2016-11-17T11:38:35.529Z,18.62
2016-11-17T11:39:01.144Z,18.58
2016-11-17T11:39:26.697Z,18.58
2016-11-17T11:39:52.275Z,18.58
2016-11-17T11:40:17.848Z,18.59
2016-11-17T11:40:43.433Z,18.58
2016-11-17T11:41:09.092Z,18.54
2016-11-17T11:41:34.683Z,18.61
2016-11-17T11:42:00.473Z,18.61
2016-11-17T11:42:26.058Z,18.58
2016-11-17T11:42:51.630Z,18.61
2016-11-17T11:43:17.273Z,18.58
2016-11-17T11:43:42.837Z,18.58
2016-11-17T11:44:08.419Z,18.59
2016-11-17T11:44:34.038Z,18.55
2016-11-17T11:44:59.595Z,18.61
2016-11-17T11:45:25.139Z,18.59
2016-11-17T11:45:50.702Z,18.61
2016-11-17T11:46:16.436Z,18.55
2016-11-17T11:46:42.019Z,18.59
2016-11-17T11:47:07.558Z,18.55
2016-11-17T11:47:33.262Z,18.58
2016-11-17T11:47:58.888Z,18.58
2016-11-17T11:48:24.422Z,18.62
2016-11-17T11:48:50.003Z,18.52
2016-11-17T11:49:15.649Z,18.54
2016-11-17T11:49:41.251Z,18.54
2016-11-17T11:50:06.883Z,18.47
2016-11-17T11:50:32.456Z,18.61
2016-11-17T11:50:58.061Z,18.52
2016-11-17T11:51:23.616Z,18.44
2016-11-17T11:51:49.280Z,18.55
2016-11-17T11:52:14.902Z,18.59
2016-11-17T11:52:40.479Z,18.52
2016-11-17T11:53:06.043Z,18.55
2016-11-17T11:53:31.635Z,18.46
2016-11-17T11:53:57.253Z,18.57
2016-11-17T11:54:22.816Z,18.59
2016-11-17T11:54:48.407Z,18.57
2016-11-17T11:55:13.971Z,18.58
2016-11-17T11:55:39.519Z,18.7
2016-11-17T11:56:05.295Z,18.61
2016-11-17T11:56:30.815Z,18.62
2016-11-17T11:56:56.594Z,18.64
2016-11-17T11:57:22.154Z,18.67
2016-11-17T11:57:47.714Z,18.73
2016-11-17T11:58:13.372Z,18.68
2016-11-17T11:58:38.929Z,18.68
2016-11-17T11:59:04.511Z,18.7
2016-11-17T11:59:30.095Z,18.73
2016-11-17T11:59:55.634Z,18.73
2016-11-17T12:00:21.249Z,18.77
2016-11-17T12:00:46.917Z,18.72
2016-11-17T12:01:12.507Z,18.72
2016-11-17T12:01:38.071Z,18.79
2016-11-17T12:02:03.667Z,18.73
2016-11-17T12:02:29.247Z,18.77
2016-11-17T12:02:54.805Z,18.8
2016-11-17T12:03:20.480Z,18.8
2016-11-17T12:03:46.130Z,18.72
2016-11-17T12:04:11.720Z,18.76
2016-11-17T12:04:37.345Z,18.8
2016-11-17T12:05:02.943Z,18.83
2016-11-17T12:05:28.577Z,18.86
2016-11-17T12:05:54.275Z,18.87
2016-11-17T12:06:19.755Z,18.9
2016-11-17T12:06:45.398Z,18.9
2016-11-17T12:07:10.930Z,18.84
2016-11-17T12:07:36.554Z,18.84
2016-11-17T12:08:02.100Z,18.8
2016-11-17T12:08:27.679Z,18.83
2016-11-17T12:09:26.112Z,18.95
2016-11-17T12:09:51.516Z,18.92
2016-11-17T12:10:17.099Z,18.92
2016-11-17T12:10:42.771Z,18.97
2016-11-17T12:11:08.329Z,19.02
2016-11-17T12:11:33.901Z,18.98
2016-11-17T12:11:59.593Z,19.01
2016-11-17T12:12:25.187Z,19.05
2016-11-17T12:12:50.764Z,18.99
2016-11-17T12:13:59.042Z,18.98
2016-11-17T12:16:06.362Z,19.13
2016-11-17T12:16:31.977Z,19.14
2016-11-17T12:16:57.560Z,19.08
2016-11-17T12:17:23.113Z,19.1
2016-11-17T12:18:26.437Z,19.17
2016-11-17T12:18:52.047Z,19.13
2016-11-17T12:19:17.674Z,19.06
2016-11-17T12:19:43.350Z,19.14
2016-11-17T12:20:09.036Z,19.1
2016-11-17T12:20:34.686Z,19.15
2016-11-17T12:21:00.400Z,19.08
2016-11-17T12:21:26.026Z,19.13
2016-11-17T12:21:51.652Z,19.11
2016-11-17T12:22:17.175Z,19.2
2016-11-17T12:22:42.733Z,19.17
2016-11-17T12:23:08.286Z,19.15
2016-11-17T12:23:33.873Z,19.23
2016-11-17T12:23:59.416Z,19.11
2016-11-17T12:24:24.991Z,19.21
2016-11-17T12:24:50.551Z,19.2
2016-11-17T12:25:16.266Z,19.2
2016-11-17T12:26:14.290Z,19.18
2016-11-17T12:26:39.863Z,19.2
2016-11-17T12:27:05.435Z,19.15
2016-11-17T12:27:31.001Z,19.18
2016-11-17T12:27:56.813Z,19.13
2016-11-17T12:28:22.233Z,19.13
2016-11-17T12:28:47.855Z,19.14
2016-11-17T12:29:13.406Z,19.13
2016-11-17T12:29:39.011Z,19.06
2016-11-17T12:30:04.595Z,19.1
2016-11-17T12:30:30.143Z,19.14
2016-11-17T12:30:55.764Z,19.06
2016-11-17T12:31:21.321Z,19.1
2016-11-17T12:31:47.021Z,19.13
2016-11-17T12:32:12.651Z,19.02
2016-11-17T12:32:38.254Z,19.02
2016-11-17T12:33:04.654Z,19.05
2016-11-17T12:33:30.331Z,19.05
2016-11-17T12:33:55.886Z,19.02
2016-11-17T12:34:21.439Z,18.97
2016-11-17T12:34:47.065Z,18.92
2016-11-17T12:35:12.604Z,18.9
2016-11-17T12:35:38.273Z,18.91
2016-11-17T12:36:03.849Z,18.94
2016-11-17T12:36:29.424Z,18.98
2016-11-17T12:36:54.978Z,18.95
2016-11-17T12:37:20.530Z,18.94
2016-11-17T12:37:46.220Z,18.94
2016-11-17T12:38:11.809Z,18.9
2016-11-17T12:38:37.373Z,18.91
2016-11-17T12:39:02.998Z,18.97
2016-11-17T12:39:28.561Z,18.94
2016-11-17T12:39:54.240Z,18.91
2016-11-17T12:40:19.834Z,18.9
2016-11-17T12:40:45.419Z,18.94
2016-11-17T12:41:11.019Z,18.91
2016-11-17T12:41:36.576Z,18.8
2016-11-17T12:42:02.253Z,18.84
2016-11-17T12:42:27.878Z,18.87
2016-11-17T12:42:53.437Z,18.82
2016-11-17T12:43:19.043Z,18.84
2016-11-17T12:43:44.618Z,18.83
2016-11-17T12:44:10.202Z,18.84
2016-11-17T12:44:35.781Z,18.86
2016-11-17T12:45:01.453Z,18.84
2016-11-17T12:45:27.055Z,18.86
2016-11-17T12:45:52.615Z,18.84
2016-11-17T12:46:18.231Z,18.77
2016-11-17T12:46:43.820Z,18.79
2016-11-17T12:47:09.383Z,18.82
2016-11-17T12:47:35.016Z,18.74
2016-11-17T12:48:00.646Z,18.82
2016-11-17T12:48:26.201Z,18.8
2016-11-17T12:48:51.781Z,18.83
2016-11-17T12:49:17.443Z,18.84
2016-11-17T12:49:43.036Z,18.84
2016-11-17T12:50:08.594Z,18.86
2016-11-17T12:50:34.268Z,18.9
2016-11-17T12:50:59.886Z,18.91
2016-11-17T12:51:25.657Z,18.94
2016-11-17T12:51:51.243Z,18.99
2016-11-17T12:52:16.808Z,19.01
2016-11-17T12:52:42.365Z,19.02
2016-11-17T12:53:08.110Z,19.06
2016-11-17T12:53:33.680Z,19.13
2016-11-17T12:53:59.253Z,19.1
2016-11-17T12:54:24.823Z,19.06
2016-11-17T12:54:50.418Z,19.13
2016-11-17T12:55:15.983Z,19.13
2016-11-17T12:55:41.566Z,19.11
2016-11-17T12:56:07.109Z,19.17
2016-11-17T12:56:32.738Z,19.15
2016-11-17T12:56:58.288Z,19.13
2016-11-17T12:57:23.868Z,19.11
2016-11-17T12:57:49.477Z,19.2
2016-11-17T12:58:15.111Z,19.18
2016-11-17T12:58:40.700Z,19.18
2016-11-17T12:59:06.313Z,19.21
2016-11-17T12:59:31.859Z,19.18
2016-11-17T12:59:57.440Z,19.2
2016-11-17T13:00:22.989Z,19.2
2016-11-17T13:00:48.645Z,19.14
2016-11-17T13:01:14.318Z,19.14
2016-11-17T13:01:39.890Z,19.11
2016-11-17T13:02:05.479Z,19.13
2016-11-17T13:02:31.093Z,19.1
2016-11-17T13:02:56.674Z,19.13
2016-11-17T13:03:22.292Z,19.1
2016-11-17T13:03:47.884Z,19.08
2016-11-17T13:04:13.483Z,19.13
2016-11-17T13:05:21.905Z,19.06
2016-11-17T13:05:47.583Z,19.08
2016-11-17T13:06:13.110Z,19.01
2016-11-17T13:06:38.763Z,19.01
2016-11-17T13:07:04.330Z,19.1
2016-11-17T13:07:29.902Z,19.08
2016-11-17T13:07:55.481Z,18.98
2016-11-17T13:08:21.227Z,19.02
2016-11-17T13:08:46.749Z,19.05
2016-11-17T13:09:12.329Z,19.02
2016-11-17T13:09:37.881Z,19.05
2016-11-17T13:10:03.472Z,19.01
2016-11-17T13:10:29.115Z,19.05
2016-11-17T13:10:54.775Z,19.05
2016-11-17T13:11:20.337Z,19.08
2016-11-17T13:11:45.898Z,19.05
2016-11-17T13:12:11.508Z,19.05
2016-11-17T13:12:37.068Z,19.02
2016-11-17T13:13:02.631Z,19.01
2016-11-17T13:13:28.196Z,19.06
2016-11-17T13:13:53.782Z,19.01
2016-11-17T13:14:19.393Z,19.05
2016-11-17T13:14:44.950Z,19.08
2016-11-17T13:15:10.522Z,19.11
2016-11-17T13:15:36.081Z,19.05
2016-11-17T13:16:01.799Z,19.02
2016-11-17T13:16:27.381Z,19.05
2016-11-17T13:16:52.944Z,19.06
2016-11-17T13:17:18.686Z,19.02
2016-11-17T13:17:44.256Z,19.1
2016-11-17T13:18:10.601Z,19.05
2016-11-17T13:18:35.473Z,19.1
2016-11-17T13:19:01.038Z,19.02
2016-11-17T13:19:26.638Z,19.01
2016-11-17T13:19:52.199Z,19.02
2016-11-17T13:20:17.830Z,19.1
2016-11-17T13:20:43.459Z,19.06
2016-11-17T13:21:09.036Z,19.02
2016-11-17T13:21:34.625Z,19.06
2016-11-17T13:22:00.192Z,19.11
2016-11-17T13:22:25.763Z,19.1
2016-11-17T13:22:51.322Z,19.11
2016-11-17T13:23:17.001Z,19.06
2016-11-17T13:24:20.222Z,19.18
2016-11-17T13:26:27.562Z,19.08
2016-11-17T13:26:53.114Z,19.2
2016-11-17T13:27:18.726Z,19.13
2016-11-17T13:27:44.277Z,19.21
2016-11-17T13:28:09.854Z,19.15
2016-11-17T13:28:35.382Z,19.11
2016-11-17T13:29:01.074Z,19.13
2016-11-17T13:29:26.730Z,19.13
2016-11-17T13:29:52.290Z,19.21
2016-11-17T13:30:17.964Z,19.24
2016-11-17T13:30:43.542Z,19.24
2016-11-17T13:31:09.092Z,19.21
2016-11-17T13:31:34.674Z,19.28
2016-11-17T13:32:00.224Z,19.23
2016-11-17T13:32:25.893Z,19.24
2016-11-17T13:32:51.437Z,19.24
2016-11-17T13:33:16.999Z,19.15
2016-11-17T13:33:42.594Z,19.25
2016-11-17T13:34:08.176Z,19.23
2016-11-17T13:34:33.764Z,19.25
2016-11-17T13:34:59.566Z,19.31
2016-11-17T13:35:24.876Z,19.21
2016-11-17T13:35:50.489Z,19.24
2016-11-17T13:36:16.066Z,19.25
2016-11-17T13:36:41.653Z,19.24
2016-11-17T13:37:07.207Z,19.25
2016-11-17T13:37:32.917Z,19.24
2016-11-17T13:37:58.467Z,19.28
2016-11-17T13:38:24.117Z,19.25
2016-11-17T13:38:49.673Z,19.24
2016-11-17T13:39:15.277Z,19.25
2016-11-17T13:39:40.830Z,19.29
2016-11-17T13:40:06.372Z,19.24
2016-11-17T13:40:32.065Z,19.32
2016-11-17T13:40:57.595Z,19.29
2016-11-17T13:41:23.162Z,19.29
2016-11-17T13:41:48.736Z,19.21
2016-11-17T13:42:14.312Z,19.23
2016-11-17T13:42:39.906Z,19.31
2016-11-17T13:43:05.496Z,19.31
2016-11-17T13:43:31.701Z,19.28
2016-11-17T13:43:57.344Z,19.24
2016-11-17T13:44:23.022Z,19.28
2016-11-17T13:44:48.590Z,19.24
2016-11-17T13:45:14.207Z,19.31
2016-11-17T13:45:39.781Z,19.29
2016-11-17T13:46:05.394Z,19.25
2016-11-17T13:46:30.958Z,19.25
2016-11-17T13:46:56.536Z,19.24
2016-11-17T13:47:22.100Z,19.25
2016-11-17T13:47:47.655Z,19.23
2016-11-17T13:48:13.243Z,19.28
2016-11-17T13:48:38.878Z,19.24
2016-11-17T13:49:04.460Z,19.25
2016-11-17T13:49:30.095Z,19.21
2016-11-17T13:49:55.649Z,19.23
2016-11-17T13:50:21.236Z,19.2
2016-11-17T13:51:14.307Z,19.23
2016-11-17T13:51:39.869Z,19.17
2016-11-17T13:52:05.418Z,19.24
2016-11-17T13:52:31.007Z,19.21
2016-11-17T13:52:56.575Z,19.2
2016-11-17T13:53:22.165Z,19.17
2016-11-17T13:53:47.809Z,19.17
2016-11-17T13:54:13.378Z,19.14
2016-11-17T13:54:38.980Z,19.13
2016-11-17T13:55:04.562Z,19.1
2016-11-17T13:55:30.141Z,19.14
2016-11-17T13:55:55.695Z,19.14
2016-11-17T13:56:21.289Z,19.14
2016-11-17T13:56:46.822Z,19.14
2016-11-17T13:57:12.388Z,19.11
2016-11-17T13:57:38.031Z,19.1
2016-11-17T13:58:03.589Z,19.17
2016-11-17T13:58:29.273Z,19.13
2016-11-17T13:58:54.853Z,19.13
2016-11-17T13:59:20.471Z,19.1
2016-11-17T13:59:46.154Z,19.13
2016-11-17T14:00:11.743Z,19.13
2016-11-17T14:00:37.363Z,19.06
2016-11-17T14:01:02.906Z,19.18
2016-11-17T14:01:28.522Z,19.08
2016-11-17T14:01:54.278Z,19.14
2016-11-17T14:02:19.915Z,19.11
2016-11-17T14:02:46.012Z,19.1
2016-11-17T14:03:11.061Z,19.15
2016-11-17T14:03:36.640Z,19.11
2016-11-17T14:04:02.221Z,19.1
2016-11-17T14:04:27.861Z,19.17
2016-11-17T14:04:53.472Z,19.18
2016-11-17T14:05:19.061Z,19.18
2016-11-17T14:05:44.633Z,19.18
2016-11-17T14:06:10.231Z,19.18
2016-11-17T14:06:35.783Z,19.17
2016-11-17T14:07:01.407Z,19.25
2016-11-17T14:07:26.973Z,19.2
2016-11-17T14:07:52.519Z,19.2
2016-11-17T14:08:18.073Z,19.24
2016-11-17T14:08:43.663Z,19.24
2016-11-17T14:09:09.237Z,19.24
2016-11-17T14:09:34.812Z,19.28
2016-11-17T14:10:00.362Z,19.25
2016-11-17T14:10:25.910Z,19.25
2016-11-17T14:10:51.582Z,19.23
2016-11-17T14:11:17.167Z,19.33
2016-11-17T14:11:42.742Z,19.24
2016-11-17T14:12:08.305Z,19.32
2016-11-17T14:12:33.861Z,19.32
2016-11-17T14:12:59.508Z,19.33
2016-11-17T14:13:25.089Z,19.31
2016-11-17T14:13:50.710Z,19.31
2016-11-17T14:14:16.308Z,19.29
2016-11-17T14:14:41.863Z,19.35
2016-11-17T14:15:07.459Z,19.33
2016-11-17T14:15:33.016Z,19.35
2016-11-17T14:15:58.682Z,19.36
2016-11-17T14:16:24.305Z,19.39
2016-11-17T14:16:49.939Z,19.36
2016-11-17T14:17:15.764Z,19.35
2016-11-17T14:17:41.399Z,19.32
2016-11-17T14:18:07.003Z,19.36
2016-11-17T14:18:32.555Z,19.39
2016-11-17T14:18:58.122Z,19.35
2016-11-17T14:19:23.772Z,19.36
2016-11-17T14:19:49.371Z,19.29
2016-11-17T14:20:14.974Z,19.35
2016-11-17T14:20:40.577Z,19.28
2016-11-17T14:21:06.202Z,19.39
2016-11-17T14:21:31.784Z,19.29
2016-11-17T14:21:57.350Z,19.29
2016-11-17T14:22:22.938Z,19.35
2016-11-17T14:22:48.610Z,19.33
2016-11-17T14:23:14.186Z,19.38
2016-11-17T14:23:39.822Z,19.33
2016-11-17T14:24:05.476Z,19.35
2016-11-17T14:24:30.972Z,19.23
2016-11-17T14:24:56.548Z,19.31
2016-11-17T14:25:22.112Z,19.23
2016-11-17T14:25:47.789Z,19.23
2016-11-17T14:26:13.347Z,19.2
2016-11-17T14:26:38.993Z,19.24
2016-11-17T14:27:04.626Z,19.24
2016-11-17T14:27:30.191Z,19.23
2016-11-17T14:27:55.767Z,19.24
2016-11-17T14:28:21.359Z,19.24
2016-11-17T14:28:46.999Z,19.23
2016-11-17T14:29:12.593Z,19.2
2016-11-17T14:29:38.147Z,19.21
2016-11-17T14:30:03.792Z,19.15
2016-11-17T14:30:29.400Z,19.18
2016-11-17T14:30:55.016Z,19.13
2016-11-17T14:31:20.643Z,19.21
2016-11-17T14:31:46.192Z,19.17
2016-11-17T14:32:11.778Z,19.08
2016-11-17T14:32:37.409Z,19.06
2016-11-17T14:33:02.986Z,19.14
2016-11-17T14:33:28.558Z,19.13
2016-11-17T14:33:54.130Z,19.13
2016-11-17T14:35:45.245Z,19.06
2016-11-17T14:36:10.825Z,19.15
2016-11-17T14:36:36.396Z,19.08
2016-11-17T14:37:02.011Z,19.17
2016-11-17T14:37:27.577Z,19.06
2016-11-17T14:37:53.170Z,19.14
2016-11-17T14:38:18.749Z,19.05
2016-11-17T14:38:44.336Z,19.15
2016-11-17T14:39:09.921Z,19.1
2016-11-17T14:39:35.483Z,19.2
2016-11-17T14:40:01.065Z,19.18
2016-11-17T14:40:26.711Z,19.18
2016-11-17T14:40:52.290Z,19.13
2016-11-17T14:41:17.873Z,19.2
2016-11-17T14:41:43.467Z,19.08
2016-11-17T14:42:09.085Z,19.17
2016-11-17T14:42:34.781Z,19.18
2016-11-17T14:43:00.360Z,19.24
2016-11-17T14:43:25.949Z,19.21
2016-11-17T14:43:51.501Z,19.24
2016-11-17T14:44:17.058Z,19.17
2016-11-17T14:44:42.728Z,19.18
2016-11-17T14:45:09.003Z,19.13
2016-11-17T14:45:34.596Z,19.15
2016-11-17T14:46:00.299Z,19.18
2016-11-17T14:46:26.668Z,19.17
2016-11-17T14:46:52.402Z,19.24
2016-11-17T14:47:18.042Z,19.17
2016-11-17T14:47:43.626Z,19.13
2016-11-17T14:48:09.184Z,19.18
2016-11-17T14:48:34.719Z,19.08
2016-11-17T14:49:00.258Z,19.13
2016-11-17T14:49:25.945Z,19.05
2016-11-17T14:49:51.495Z,19.14
2016-11-17T14:50:17.057Z,19.1
2016-11-17T14:50:42.607Z,19.13
2016-11-17T14:51:08.183Z,19.06
2016-11-17T14:51:33.760Z,19.1
2016-11-17T14:51:59.340Z,18.98
2016-11-17T14:52:24.895Z,18.98
2016-11-17T14:52:50.471Z,18.99
2016-11-17T14:53:16.674Z,18.92
2016-11-17T14:53:42.231Z,18.98
2016-11-17T14:54:07.791Z,18.92
2016-11-17T14:54:33.354Z,18.92
2016-11-17T14:54:58.947Z,18.92
2016-11-17T14:55:24.555Z,18.97
2016-11-17T14:55:50.352Z,18.94
2016-11-17T14:56:15.974Z,18.91
2016-11-17T14:56:41.550Z,18.98
2016-11-17T14:57:07.101Z,18.9
2016-11-17T14:57:32.670Z,18.84
2016-11-17T14:57:58.251Z,18.87
2016-11-17T14:58:23.821Z,18.87
2016-11-17T14:58:49.398Z,18.94
2016-11-17T14:59:15.031Z,18.83
2016-11-17T14:59:40.591Z,18.86
2016-11-17T15:00:06.164Z,18.84
2016-11-17T15:00:31.743Z,18.91
2016-11-17T15:00:57.387Z,18.9
2016-11-17T15:01:23.039Z,18.77
2016-11-17T15:01:48.523Z,18.8
2016-11-17T15:02:14.178Z,18.79
2016-11-17T15:02:39.813Z,18.74
2016-11-17T15:03:05.395Z,18.72
2016-11-17T15:03:30.937Z,18.76
2016-11-17T15:03:56.525Z,18.76
2016-11-17T15:04:22.150Z,18.79
2016-11-17T15:04:47.720Z,18.79
2016-11-17T15:05:13.301Z,18.79
2016-11-17T15:05:38.958Z,18.77
2016-11-17T15:06:05.550Z,18.74
2016-11-17T15:06:31.154Z,18.68
2016-11-17T15:06:56.723Z,18.7
2016-11-17T15:07:22.306Z,18.65
2016-11-17T15:07:47.904Z,18.67
2016-11-17T15:08:13.476Z,18.65
2016-11-17T15:08:39.048Z,18.65
2016-11-17T15:09:04.764Z,18.62
2016-11-17T15:09:30.343Z,18.68
2016-11-17T15:09:55.901Z,18.58
2016-11-17T15:10:21.527Z,18.58
2016-11-17T15:10:47.082Z,18.55
2016-11-17T15:11:12.660Z,18.64
2016-11-17T15:11:38.320Z,18.54
2016-11-17T15:12:03.962Z,18.59
2016-11-17T15:12:29.601Z,18.59
2016-11-17T15:12:55.204Z,18.55
2016-11-17T15:13:20.802Z,18.58
2016-11-17T15:13:46.458Z,18.59
2016-11-17T15:14:11.998Z,18.55
2016-11-17T15:14:37.601Z,18.55
2016-11-17T15:15:03.154Z,18.54
2016-11-17T15:15:28.706Z,18.54
2016-11-17T15:15:54.416Z,18.57
2016-11-17T15:16:19.969Z,18.57
2016-11-17T15:16:45.551Z,18.47
2016-11-17T15:17:11.136Z,18.52
2016-11-17T15:17:36.763Z,18.47
2016-11-17T15:18:02.442Z,18.5
2016-11-17T15:18:27.992Z,18.46
2016-11-17T15:18:53.584Z,18.44
2016-11-17T15:19:19.279Z,18.4
2016-11-17T15:19:44.866Z,18.42
2016-11-17T15:20:10.472Z,18.42
2016-11-17T15:20:36.029Z,18.4
2016-11-17T15:21:01.579Z,18.4
2016-11-17T15:21:27.197Z,18.4
2016-11-17T15:21:52.792Z,18.42
2016-11-17T15:22:18.368Z,18.44
2016-11-17T15:22:43.968Z,18.42
2016-11-17T15:23:09.638Z,18.34
2016-11-17T15:23:35.205Z,18.4
2016-11-17T15:24:00.779Z,18.36
2016-11-17T15:24:26.445Z,18.42
2016-11-17T15:24:52.002Z,18.34
2016-11-17T15:25:17.690Z,18.33
2016-11-17T15:26:21.066Z,18.36
2016-11-17T15:27:29.441Z,18.36
2016-11-17T15:29:45.100Z,18.28
2016-11-17T15:30:10.757Z,18.31
2016-11-17T15:30:36.338Z,18.29
2016-11-17T15:31:01.893Z,18.29
2016-11-17T15:31:27.458Z,18.25
2016-11-17T15:31:53.058Z,18.25
2016-11-17T15:32:18.658Z,18.19
2016-11-17T15:32:44.302Z,18.28
2016-11-17T15:33:09.903Z,18.17
2016-11-17T15:33:35.462Z,18.17
2016-11-17T15:34:01.018Z,18.25
2016-11-17T15:34:26.577Z,18.19
2016-11-17T15:34:52.118Z,18.21
2016-11-17T15:35:17.730Z,18.21
2016-11-17T15:35:43.328Z,18.19
2016-11-17T15:36:08.883Z,18.18
2016-11-17T15:36:34.450Z,18.15
2016-11-17T15:37:00.006Z,18.17
2016-11-17T15:37:25.580Z,18.21
2016-11-17T15:37:51.175Z,18.22
2016-11-17T15:38:16.744Z,18.17
2016-11-17T15:38:42.325Z,18.15
2016-11-17T15:39:07.892Z,18.15
2016-11-17T15:39:33.442Z,18.18
2016-11-17T15:39:59.032Z,18.19
2016-11-17T15:40:24.629Z,18.03
2016-11-17T15:40:50.236Z,18.19
2016-11-17T15:41:15.864Z,18.17
2016-11-17T15:41:41.421Z,18.13
2016-11-17T15:42:07.000Z,18.17
2016-11-17T15:42:32.607Z,18.13
2016-11-17T15:42:58.160Z,18.03
2016-11-17T15:43:23.809Z,18.07
2016-11-17T15:43:49.361Z,18.03
2016-11-17T15:44:14.964Z,17.99
2016-11-17T15:44:40.509Z,18.13
2016-11-17T15:45:06.076Z,18.09
2016-11-17T15:45:31.704Z,18.06
2016-11-17T15:45:57.317Z,18.07
2016-11-17T15:46:23.023Z,18.09
2016-11-17T15:46:48.604Z,18.03
2016-11-17T15:47:14.197Z,18.06
2016-11-17T15:47:39.794Z,18.04
2016-11-17T15:48:05.362Z,18.07
2016-11-17T15:48:30.932Z,18.04
2016-11-17T15:48:56.474Z,18.06
2016-11-17T15:49:22.171Z,17.99
2016-11-17T15:49:47.790Z,17.99
2016-11-17T15:50:13.349Z,17.99
2016-11-17T15:50:38.952Z,17.99
2016-11-17T15:51:04.502Z,17.94
2016-11-17T15:51:30.051Z,18.03
2016-11-17T15:51:55.637Z,18
2016-11-17T15:52:21.305Z,17.97
2016-11-17T15:53:24.553Z,18.02
2016-11-17T15:53:50.142Z,17.99
2016-11-17T15:54:15.732Z,17.97
2016-11-17T15:54:41.297Z,18
2016-11-17T15:55:06.917Z,17.95
2016-11-17T15:55:32.459Z,17.99
2016-11-17T15:55:58.043Z,17.91
2016-11-17T15:56:23.630Z,17.92
2016-11-17T15:56:49.248Z,17.99
2016-11-17T15:57:14.822Z,18
2016-11-17T15:57:40.396Z,17.95
2016-11-17T15:58:06.087Z,17.95
2016-11-17T15:58:32.228Z,17.97
2016-11-17T15:58:57.285Z,17.95
2016-11-17T15:59:22.928Z,17.99